Terminal Aerodrome Forecast
Issued by NWS Jacksonville, FL

Home | Current Version | Previous Version | Text Only | Print | Product List | Glossary On
Versions: 1 2 3 4 5 6 7 8 9 10 11 12 13 14 15 16 17 18 19 20 21 22 23 24 25 26 27 28 29 30
000
FTUS42 KJAX 281741
TAFGNV
TAF
KGNV 281741Z 2818/2918 08009KT P6SM VCTS SCT025CB BKN045 BKN250
     FM290100 08006KT P6SM SCT030 BKN050 BKN250
     FM291500 11006KT P6SM SCT025 BKN040=

USA.gov is the U.S. government's official web portal to all federal, state and local government web resources and services.